This is the latest recevied weather packets stored in our database for station/object WC0AA15WX. If no packets are shown the sender has not sent any weather packets the latest 10 day(s).
| Time | Temp. | Humidity | Pressure | Rain* | Wind** | Luminosity | Snow |
|---|---|---|---|---|---|---|---|
| 1777606298 | 11.11° C | 69% | 1023.7 hPa | 0 mm | - | - | - |
| 1777605698 | 11.11° C | 70% | 1023.7 hPa | 0 mm | - | - | - |
| 1777605068 | 11.67° C | 69% | 1023.6 hPa | 0 mm | - | - | - |
| 1777604468 | 11.67° C | 67% | 1023.4 hPa | 0 mm | - | - | - |
| 1777603868 | 12.22° C | 67% | 1023.4 hPa | 0 mm | - | - | - |
| 1777603268 | 12.22° C | 67% | 1023 hPa | 0 mm | - | - | - |
| 1777602668 | 12.78° C | 68% | 1022.7 hPa | 0 mm | - | - | - |
| 1777602068 | 12.78° C | 67% | 1022.7 hPa | 0 mm | - | - | - |
| 1777601468 | 12.78° C | 67% | 1022.7 hPa | 0 mm | - | - | - |
| 1777600868 | 13.33° C | 66% | 1022.4 hPa | 0 mm | - | - | - |
| 1777600268 | 13.33° C | 65% | 1022.4 hPa | 0 mm | - | - | - |
| 1777599668 | 13.33° C | 63% | 1022 hPa | 0 mm | - | - | - |
| 1777599068 | 13.89° C | 63% | 1021.7 hPa | 0 mm | - | - | - |
| 1777598468 | 14.44° C | 62% | 1021.7 hPa | 0 mm | - | - | - |
| 1777597867 | 14.44° C | 63% | 1021.7 hPa | 0 mm | - | - | - |
| 1777597267 | 15° C | 61% | 1021.3 hPa | 0 mm | - | - | - |
| 1777596667 | 15° C | 61% | 1021.3 hPa | 0 mm | - | - | - |
| 1777596067 | 15.56° C | 62% | 1021.3 hPa | 0 mm | - | - | - |
| 1777595467 | 15.56° C | 64% | 1021 hPa | 0 mm | - | - | - |
| 1777594867 | 15° C | 69% | 1021 hPa | 0 mm | - | - | - |
| 1777594267 | 15.56° C | 69% | 1021 hPa | 0 mm | - | - | - |
| 1777593667 | 15.56° C | 72% | 1021 hPa | 0 mm | - | - | - |
| 1777593067 | 16.67° C | 67% | 1020.7 hPa | 0.51 mm | - | - | - |
| 1777592467 | 16.67° C | 70% | 1020.7 hPa | 0.51 mm | - | - | - |
| 1777591867 | 17.22° C | 72% | 1021 hPa | 0.51 mm | - | - | - |
* Rain latest hour (hover to see other rain measurements)
** Current wind speed in m/s (hover to see current wind gust speed)